createdAt,value
2017-11-07T00:01:40.743Z,102738.19
2017-11-07T00:04:07.169Z,102735.56
2017-11-07T00:06:33.425Z,102743.88
2017-11-07T00:08:59.674Z,102740.41
2017-11-07T00:11:26.144Z,102743.91
2017-11-07T00:13:52.494Z,102740.86
2017-11-07T00:16:18.723Z,102738.25
2017-11-07T00:18:44.931Z,102745.27
2017-11-07T00:21:11.198Z,102736.91
2017-11-07T00:23:37.641Z,102733.34
2017-11-07T00:26:03.839Z,102742.08
2017-11-07T00:28:30.330Z,102733.75
2017-11-07T00:30:56.556Z,102745.11
2017-11-07T00:33:22.995Z,102742.50
2017-11-07T00:35:49.280Z,102741.61
2017-11-07T00:38:15.630Z,102733.24
2017-11-07T00:40:41.851Z,102733.56
2017-11-07T00:43:08.123Z,102729.19
2017-11-07T00:45:34.338Z,102732.20
2017-11-07T00:48:00.534Z,102733.05
2017-11-07T00:50:26.907Z,102731.32
2017-11-07T00:52:53.110Z,102739.61
2017-11-07T00:55:19.323Z,102739.61
2017-11-07T00:57:45.659Z,102738.30
2017-11-07T01:00:11.846Z,102735.19
2017-11-07T01:02:38.029Z,102740.44
2017-11-07T01:05:04.342Z,102737.36
2017-11-07T01:07:30.529Z,102738.64
2017-11-07T01:09:56.726Z,102729.48
2017-11-07T01:12:23.285Z,102732.99
2017-11-07T01:14:49.482Z,102725.99
2017-11-07T01:17:15.670Z,102727.31
2017-11-07T01:19:41.917Z,102729.53
2017-11-07T01:22:08.112Z,102733.02
2017-11-07T01:24:34.313Z,102726.92
2017-11-07T01:27:00.617Z,102724.33
2017-11-07T01:29:26.795Z,102723.97
2017-11-07T01:31:53.233Z,102727.92
2017-11-07T01:34:19.657Z,102722.70
2017-11-07T01:36:45.875Z,102719.66
2017-11-07T01:39:12.545Z,102717.95
2017-11-07T01:41:38.864Z,102717.89
2017-11-07T01:44:05.074Z,102714.42
2017-11-07T01:46:31.287Z,102716.62
2017-11-07T01:48:57.940Z,102711.39
2017-11-07T01:51:24.153Z,102704.42
2017-11-07T01:53:50.590Z,102707.92
2017-11-07T01:56:16.842Z,102700.95
2017-11-07T01:58:43.122Z,102698.34
2017-11-07T02:01:09.330Z,102692.18
2017-11-07T02:03:35.670Z,102686.39
2017-11-07T02:06:02.091Z,102688.94
2017-11-07T02:08:28.289Z,102687.57
2017-11-07T02:10:55.234Z,102687.57
2017-11-07T02:13:21.441Z,102677.52
2017-11-07T02:15:47.653Z,102672.73
2017-11-07T02:18:14.463Z,102674.50
2017-11-07T02:20:40.891Z,102674.09
2017-11-07T02:23:07.103Z,102679.28
2017-11-07T02:25:33.703Z,102676.61
2017-11-07T02:27:59.901Z,102675.83
2017-11-07T02:30:26.105Z,102670.55
2017-11-07T02:32:52.401Z,102673.17
2017-11-07T02:35:18.856Z,102675.34
2017-11-07T02:37:45.077Z,102672.73
2017-11-07T02:40:11.817Z,102675.83
2017-11-07T02:42:38.295Z,102677.14
2017-11-07T02:45:04.503Z,102679.81
2017-11-07T02:47:30.747Z,102678.49
2017-11-07T02:49:56.933Z,102676.32
2017-11-07T02:52:23.246Z,102673.67
2017-11-07T02:54:49.459Z,102677.20
2017-11-07T02:57:15.662Z,102676.34
2017-11-07T02:59:41.916Z,102676.80
2017-11-07T03:02:08.109Z,102682.06
2017-11-07T03:04:34.381Z,102675.48
2017-11-07T03:07:00.713Z,102671.50
2017-11-07T03:09:27.135Z,102669.75
2017-11-07T03:11:53.324Z,102675.44
2017-11-07T03:14:19.821Z,102677.24
2017-11-07T03:16:46.034Z,102677.27
2017-11-07T03:19:12.257Z,102680.33
2017-11-07T03:21:38.513Z,102686.45
2017-11-07T03:24:04.710Z,102686.44
2017-11-07T03:26:30.894Z,102682.95
2017-11-07T03:28:57.161Z,102685.13
2017-11-07T03:31:23.344Z,102682.47
2017-11-07T03:33:49.546Z,102684.21
2017-11-07T03:36:15.768Z,102691.22
2017-11-07T03:38:41.994Z,102686.42
2017-11-07T03:41:08.432Z,102657.90
2017-11-07T03:43:34.752Z,102686.83
2017-11-07T03:46:00.990Z,102686.38
2017-11-07T03:48:27.194Z,102678.89
2017-11-07T03:50:53.821Z,102681.96
2017-11-07T03:53:20.037Z,102674.13
2017-11-07T03:55:46.244Z,102674.11
2017-11-07T03:58:12.484Z,102678.44
2017-11-07T04:00:38.751Z,102674.93
2017-11-07T04:03:04.958Z,102673.20
2017-11-07T04:05:31.203Z,102679.80
2017-11-07T04:07:57.409Z,102680.64
2017-11-07T04:10:23.854Z,102676.22
2017-11-07T04:12:50.201Z,102674.50
2017-11-07T04:15:16.677Z,102671.89
2017-11-07T04:17:42.902Z,102674.08
2017-11-07T04:20:09.153Z,102673.27
2017-11-07T04:22:35.384Z,102674.58
2017-11-07T04:25:01.586Z,102678.05
2017-11-07T04:27:27.856Z,102675.50
2017-11-07T04:29:54.065Z,102681.20
2017-11-07T04:32:20.273Z,102675.06
2017-11-07T04:34:47.232Z,102673.78
2017-11-07T04:37:13.432Z,102681.20
2017-11-07T04:39:39.660Z,102679.45
2017-11-07T04:42:06.093Z,102678.16
2017-11-07T04:44:32.284Z,102686.41
2017-11-07T04:46:58.490Z,102682.08
2017-11-07T04:49:24.977Z,102676.84
2017-11-07T04:51:51.179Z,102675.89
2017-11-07T04:54:17.365Z,102678.95
2017-11-07T04:56:43.922Z,102681.56
2017-11-07T04:59:10.114Z,102684.67
2017-11-07T05:01:36.297Z,102675.89
2017-11-07T05:04:02.616Z,102678.08
2017-11-07T05:06:28.808Z,102681.13
2017-11-07T05:08:55.001Z,102674.59
2017-11-07T05:11:21.259Z,102671.96
2017-11-07T05:13:53.477Z,102678.08
2017-11-07T05:16:19.668Z,102682.88
2017-11-07T05:18:45.936Z,102679.38
2017-11-07T05:21:12.154Z,102679.70
2017-11-07T05:23:38.344Z,102679.36
2017-11-07T05:26:04.594Z,102683.38
2017-11-07T05:28:31.021Z,102679.94
2017-11-07T05:30:57.230Z,102683.45
2017-11-07T05:33:23.947Z,102685.16
2017-11-07T05:35:50.146Z,102679.45
2017-11-07T05:38:16.351Z,102688.65
2017-11-07T05:40:42.611Z,102689.52
2017-11-07T05:43:09.188Z,102694.34
2017-11-07T05:45:35.380Z,102696.98
2017-11-07T05:48:01.715Z,102691.73
2017-11-07T05:50:27.967Z,102695.21
2017-11-07T05:52:54.153Z,102706.55
2017-11-07T05:55:20.417Z,102696.05
2017-11-07T05:57:46.606Z,102696.86
2017-11-07T06:00:13.116Z,102693.41
2017-11-07T06:02:39.478Z,102697.77
2017-11-07T06:05:05.689Z,102692.55
2017-11-07T06:07:31.896Z,102695.58
2017-11-07T06:09:58.242Z,102698.17
2017-11-07T06:12:24.452Z,102695.55
2017-11-07T06:14:50.653Z,102691.21
2017-11-07T06:17:17.317Z,102689.92
2017-11-07T06:19:43.545Z,102690.75
2017-11-07T06:22:09.725Z,102690.73
2017-11-07T06:24:35.973Z,102692.05
2017-11-07T06:27:02.177Z,102697.25
2017-11-07T06:29:28.620Z,102699.92
2017-11-07T06:31:55.260Z,102709.53
2017-11-07T06:34:21.753Z,102710.81
2017-11-07T06:36:48.202Z,102700.33
2017-11-07T06:39:14.542Z,102701.61
2017-11-07T06:41:40.741Z,102704.27
2017-11-07T06:44:07.031Z,102707.31
2017-11-07T06:46:33.297Z,102713.06
2017-11-07T06:48:59.497Z,102713.96
2017-11-07T06:51:25.946Z,102720.95
2017-11-07T06:53:52.235Z,102714.80
2017-11-07T06:56:18.437Z,102721.38
2017-11-07T06:58:44.633Z,102715.73
2017-11-07T07:01:11.192Z,102714.84
2017-11-07T07:03:37.647Z,102720.09
2017-11-07T07:06:03.864Z,102711.80
2017-11-07T07:08:30.198Z,102713.52
2017-11-07T07:10:56.738Z,102719.72
2017-11-07T07:13:22.929Z,102728.09
2017-11-07T07:15:49.183Z,102728.56
2017-11-07T07:18:15.375Z,102727.70
2017-11-07T07:20:41.826Z,102726.02
2017-11-07T07:23:08.082Z,102722.48
2017-11-07T07:25:34.295Z,102721.16
2017-11-07T07:28:00.510Z,102724.22
2017-11-07T07:30:26.826Z,102721.55
2017-11-07T07:32:53.031Z,102716.76
2017-11-07T07:35:19.505Z,102715.86
2017-11-07T07:37:45.761Z,102720.25
2017-11-07T07:40:11.995Z,102715.38
2017-11-07T07:42:38.495Z,102718.00
2017-11-07T07:45:05.392Z,102716.71
2017-11-07T07:47:31.618Z,102720.59
2017-11-07T07:49:58.063Z,102724.10
2017-11-07T07:52:24.662Z,102717.95
2017-11-07T07:54:50.853Z,102716.21
2017-11-07T07:57:17.062Z,102722.80
2017-11-07T07:59:43.783Z,102717.56
2017-11-07T08:02:10.267Z,102715.38
2017-11-07T08:04:36.618Z,102717.05
2017-11-07T08:07:03.240Z,102720.98
2017-11-07T08:09:29.490Z,102721.02
2017-11-07T08:11:55.730Z,102721.02
2017-11-07T08:14:22.030Z,102721.95
2017-11-07T08:16:48.556Z,102726.81
2017-11-07T08:19:14.770Z,102718.52
2017-11-07T08:21:41.016Z,102722.93
2017-11-07T08:24:07.215Z,102722.92
2017-11-07T08:26:33.407Z,102720.77
2017-11-07T08:28:59.743Z,102718.60
2017-11-07T08:31:25.946Z,102714.21
2017-11-07T08:33:52.174Z,102708.97
2017-11-07T08:36:18.738Z,102709.39
2017-11-07T08:38:44.960Z,102700.23
2017-11-07T08:41:11.183Z,102696.31
2017-11-07T08:46:03.582Z,102711.64
2017-11-07T08:48:30.133Z,102707.66
2017-11-07T08:50:56.447Z,102698.89
2017-11-07T08:53:22.671Z,102701.95
2017-11-07T08:55:48.875Z,102705.47
2017-11-07T08:58:15.130Z,102705.44
2017-11-07T09:00:41.340Z,102700.65
2017-11-07T09:03:08.514Z,102698.48
2017-11-07T09:05:34.856Z,102696.72
2017-11-07T09:08:03.175Z,102691.89
2017-11-07T09:10:30.515Z,102695.38
2017-11-07T09:12:58.554Z,102696.24
2017-11-07T09:15:26.195Z,102694.48
2017-11-07T09:17:54.245Z,102688.38
2017-11-07T09:20:22.788Z,102691.90
2017-11-07T09:22:50.667Z,102694.06
2017-11-07T09:25:17.028Z,102695.39
2017-11-07T09:27:43.376Z,102696.31
2017-11-07T09:30:09.594Z,102693.23
2017-11-07T09:32:35.805Z,102695.95
2017-11-07T09:35:02.138Z,102690.31
2017-11-07T09:37:28.355Z,102687.72
2017-11-07T09:39:54.588Z,102691.22
2017-11-07T09:42:20.831Z,102685.14
2017-11-07T09:44:47.035Z,102682.49
2017-11-07T09:47:13.589Z,102682.95
2017-11-07T09:49:39.934Z,102683.81
2017-11-07T09:52:06.132Z,102676.83
2017-11-07T09:54:32.348Z,102673.80
2017-11-07T09:56:58.634Z,102685.13
2017-11-07T09:59:24.850Z,102679.48
2017-11-07T10:01:51.291Z,102677.29
2017-11-07T10:04:17.636Z,102676.39
2017-11-07T10:06:44.094Z,102679.01
2017-11-07T10:09:11.252Z,102678.54
2017-11-07T10:11:37.522Z,102678.14
2017-11-07T10:14:03.712Z,102679.92
2017-11-07T10:16:29.909Z,102673.83
2017-11-07T10:18:56.176Z,102669.45
2017-11-07T10:21:22.379Z,102671.63
2017-11-07T10:23:48.580Z,102665.05
2017-11-07T10:26:14.844Z,102659.39
2017-11-07T10:28:41.068Z,102656.35
2017-11-07T10:31:07.340Z,102653.28
2017-11-07T10:33:33.622Z,102653.30
2017-11-07T10:35:59.968Z,102648.47
2017-11-07T10:38:26.268Z,102651.09
2017-11-07T10:40:52.759Z,102641.02
2017-11-07T10:43:18.974Z,102645.84
2017-11-07T10:45:45.182Z,102642.36
2017-11-07T10:48:11.774Z,102637.97
2017-11-07T10:50:37.995Z,102627.95
2017-11-07T10:53:04.199Z,102625.30
2017-11-07T10:55:30.473Z,102632.30
2017-11-07T10:57:56.750Z,102634.50
2017-11-07T11:00:23.022Z,102636.30
2017-11-07T11:02:49.575Z,102629.72
2017-11-07T11:05:16.010Z,102629.75
2017-11-07T11:07:42.204Z,102627.15
2017-11-07T11:10:08.447Z,102629.32
2017-11-07T11:12:35.151Z,102617.48
2017-11-07T11:15:01.349Z,102617.97
2017-11-07T11:17:27.766Z,102607.47
2017-11-07T11:19:54.009Z,102609.18
2017-11-07T11:22:20.226Z,102604.39
2017-11-07T11:24:46.415Z,102598.27
2017-11-07T11:27:13.082Z,102592.13
2017-11-07T11:29:39.267Z,102596.91
2017-11-07T11:32:05.458Z,102593.86
2017-11-07T11:34:31.782Z,102589.94
2017-11-07T11:36:57.979Z,102589.50
2017-11-07T11:39:24.528Z,102591.25
2017-11-07T11:41:51.385Z,102582.95
2017-11-07T11:44:17.585Z,102579.45
2017-11-07T11:46:44.037Z,102578.11
2017-11-07T11:49:10.334Z,102583.39
2017-11-07T11:51:36.549Z,102579.44
2017-11-07T11:54:02.756Z,102580.30
2017-11-07T11:56:28.997Z,102575.06
2017-11-07T11:58:55.486Z,102573.27
2017-11-07T12:01:21.698Z,102567.63
2017-11-07T12:03:47.976Z,102556.26
2017-11-07T12:06:14.190Z,102554.53
2017-11-07T12:08:40.404Z,102557.14
2017-11-07T12:11:06.654Z,102556.73
2017-11-07T12:13:33.432Z,102551.91
2017-11-07T12:15:59.745Z,102551.47
2017-11-07T12:18:26.137Z,102549.74
2017-11-07T12:20:52.351Z,102555.44
2017-11-07T12:23:18.636Z,102546.25
2017-11-07T12:25:44.922Z,102547.16
2017-11-07T12:28:11.378Z,102545.02
2017-11-07T12:30:37.574Z,102539.78
2017-11-07T12:33:04.155Z,102542.02
2017-11-07T12:35:30.374Z,102540.27
2017-11-07T12:37:56.998Z,102536.33
2017-11-07T12:40:23.679Z,102533.69
2017-11-07T12:42:50.243Z,102532.82
2017-11-07T12:45:17.582Z,102528.88
2017-11-07T12:47:43.923Z,102524.97
2017-11-07T12:50:22.657Z,102519.70
2017-11-07T12:52:48.994Z,102520.14
2017-11-07T12:55:15.530Z,102511.39
2017-11-07T12:57:41.817Z,102508.73
2017-11-07T13:00:08.579Z,102503.50
2017-11-07T13:02:35.139Z,102505.25
2017-11-07T13:05:01.413Z,102505.69
2017-11-07T13:07:28.083Z,102507.46
2017-11-07T13:09:54.366Z,102503.92
2017-11-07T13:12:20.658Z,102495.61
2017-11-07T13:14:47.031Z,102493.87
2017-11-07T13:17:13.310Z,102491.67
2017-11-07T13:19:39.570Z,102490.80
2017-11-07T13:22:06.136Z,102485.11
2017-11-07T13:24:32.443Z,102478.97
2017-11-07T13:26:58.694Z,102480.28
2017-11-07T13:29:25.082Z,102477.20
2017-11-07T13:31:51.357Z,102479.84
2017-11-07T13:34:17.632Z,102475.89
2017-11-07T13:36:44.427Z,102471.51
2017-11-07T13:39:10.711Z,102471.52
2017-11-07T13:41:36.955Z,102461.46
2017-11-07T13:44:03.387Z,102458.38
2017-11-07T13:46:29.719Z,102458.38
2017-11-07T13:48:55.984Z,102458.38
2017-11-07T13:51:22.392Z,102458.83
2017-11-07T13:53:48.666Z,102456.17
2017-11-07T13:56:14.960Z,102461.02
2017-11-07T13:58:41.291Z,102461.45
2017-11-07T14:01:08.258Z,102457.09
2017-11-07T14:03:34.549Z,102458.41
2017-11-07T14:06:01.120Z,102457.53
2017-11-07T14:08:27.392Z,102457.09
2017-11-07T14:10:53.677Z,102453.17
2017-11-07T14:13:20.074Z,102448.77
2017-11-07T14:15:46.333Z,102454.04
2017-11-07T14:18:12.603Z,102454.92
2017-11-07T14:20:39.323Z,102452.29
2017-11-07T14:23:05.628Z,102448.36
2017-11-07T14:25:32.208Z,102451.42
2017-11-07T14:27:59.035Z,102448.30
2017-11-07T14:30:25.542Z,102441.74
2017-11-07T14:32:51.800Z,102438.25
2017-11-07T14:35:18.155Z,102444.36
2017-11-07T14:37:44.911Z,102439.55
2017-11-07T14:40:11.166Z,102437.35
2017-11-07T14:42:37.494Z,102437.36
2017-11-07T14:45:03.773Z,102435.16
2017-11-07T14:47:30.044Z,102433.42
2017-11-07T14:49:56.489Z,102435.59
2017-11-07T14:52:22.770Z,102425.98
2017-11-07T14:54:49.074Z,102426.87
2017-11-07T14:57:15.694Z,102415.05
2017-11-07T14:59:41.998Z,102415.47
2017-11-07T15:02:08.277Z,102410.25
2017-11-07T15:04:34.639Z,102418.11
2017-11-07T15:07:00.842Z,102416.36
2017-11-07T15:09:27.271Z,102412.86
2017-11-07T15:11:53.777Z,102412.44
2017-11-07T15:14:19.975Z,102412.42
2017-11-07T15:16:46.288Z,102404.53
2017-11-07T15:19:12.844Z,102397.53
2017-11-07T15:21:39.129Z,102400.61
2017-11-07T15:24:05.380Z,102396.65
2017-11-07T15:26:31.703Z,102394.02
2017-11-07T15:28:58.181Z,102401.47
2017-11-07T15:31:24.433Z,102398.39
2017-11-07T15:33:50.800Z,102392.26
2017-11-07T15:36:17.049Z,102402.34
2017-11-07T15:38:43.685Z,102400.56
2017-11-07T15:41:10.079Z,102391.81
2017-11-07T15:43:36.302Z,102391.81
2017-11-07T15:46:02.562Z,102387.47
2017-11-07T15:48:28.997Z,102390.51
2017-11-07T15:50:55.696Z,102390.08
2017-11-07T15:53:21.973Z,102387.03
2017-11-07T15:55:48.310Z,102380.02
2017-11-07T15:58:14.581Z,102384.82
2017-11-07T16:00:40.849Z,102375.19
2017-11-07T16:03:07.282Z,102383.48
2017-11-07T16:05:33.583Z,102383.04
2017-11-07T16:07:59.858Z,102384.38
2017-11-07T16:10:26.193Z,102382.61
2017-11-07T16:12:52.438Z,102379.56
2017-11-07T16:15:18.696Z,102374.75
2017-11-07T16:17:45.067Z,102369.09
2017-11-07T16:20:11.355Z,102365.15
2017-11-07T16:22:37.628Z,102364.26
2017-11-07T16:25:03.986Z,102360.34
2017-11-07T16:27:30.281Z,102367.35
2017-11-07T16:30:05.752Z,102363.83
2017-11-07T16:32:32.056Z,102366.45
2017-11-07T16:34:58.331Z,102370.83
2017-11-07T16:37:24.720Z,102371.27
2017-11-07T16:39:51.020Z,102372.16
2017-11-07T16:42:17.257Z,102374.77
2017-11-07T16:44:43.983Z,102372.14
2017-11-07T16:47:10.238Z,102369.52
2017-11-07T16:49:36.494Z,102373.47
2017-11-07T16:52:03.003Z,102374.34
2017-11-07T16:54:29.486Z,102373.42
2017-11-07T16:56:55.884Z,102370.83
2017-11-07T16:59:22.116Z,102373.44
2017-11-07T17:01:48.313Z,102370.35
2017-11-07T17:04:14.670Z,102363.36
2017-11-07T17:06:40.880Z,102372.55
2017-11-07T17:09:07.100Z,102375.63
2017-11-07T17:11:33.641Z,102366.44
2017-11-07T17:13:59.843Z,102368.64
2017-11-07T17:16:26.035Z,102361.64
2017-11-07T17:18:52.289Z,102358.14
2017-11-07T17:21:18.487Z,102355.97
2017-11-07T17:23:44.678Z,102356.84
2017-11-07T17:26:11.173Z,102362.06
2017-11-07T17:28:37.597Z,102365.58
2017-11-07T17:31:03.798Z,102359.47
2017-11-07T17:33:30.468Z,102366.02
2017-11-07T17:35:56.693Z,102350.70
2017-11-07T17:38:22.926Z,102355.53
2017-11-07T17:40:49.211Z,102346.34
2017-11-07T17:43:15.474Z,102342.41
2017-11-07T17:45:41.752Z,102339.77
2017-11-07T17:48:08.093Z,102330.16
2017-11-07T17:50:34.364Z,102329.73
2017-11-07T17:53:00.742Z,102330.61
2017-11-07T17:55:27.109Z,102328.86
2017-11-07T17:57:53.378Z,102332.78
2017-11-07T18:00:19.640Z,102332.80
2017-11-07T18:02:46.374Z,102335.41
2017-11-07T18:05:12.641Z,102336.73
2017-11-07T18:07:39.079Z,102334.98
2017-11-07T18:10:05.744Z,102332.80
2017-11-07T18:12:31.991Z,102334.97
2017-11-07T18:14:58.267Z,102326.22
2017-11-07T18:17:24.654Z,102317.48
2017-11-07T18:19:50.952Z,102317.05
2017-11-07T18:22:17.238Z,102313.56
2017-11-07T18:24:44.287Z,102313.98
2017-11-07T18:27:10.543Z,102310.93
2017-11-07T18:29:36.781Z,102311.31
2017-11-07T18:32:03.541Z,102309.59
2017-11-07T18:34:29.824Z,102308.25
2017-11-07T18:36:56.075Z,102310.88
2017-11-07T18:39:22.350Z,102313.94
2017-11-07T18:41:48.627Z,102313.95
2017-11-07T18:44:14.873Z,102309.56
2017-11-07T18:46:41.296Z,102312.19
2017-11-07T18:49:07.641Z,102301.70
2017-11-07T18:51:33.901Z,102299.08
2017-11-07T18:54:00.225Z,102301.27
2017-11-07T18:56:26.850Z,102297.77
2017-11-07T18:58:53.100Z,102294.27
2017-11-07T19:01:19.623Z,102293.81
2017-11-07T19:03:45.969Z,102297.74
2017-11-07T19:06:12.293Z,102290.75
2017-11-07T19:08:39.144Z,102291.64
2017-11-07T19:11:05.402Z,102289.89
2017-11-07T19:13:31.678Z,102279.84
2017-11-07T19:15:58.449Z,102278.11
2017-11-07T19:18:24.699Z,102278.53
2017-11-07T19:20:50.957Z,102275.91
2017-11-07T19:23:17.731Z,102277.67
2017-11-07T19:25:43.979Z,102274.19
2017-11-07T19:28:10.227Z,102268.50
2017-11-07T19:30:36.528Z,102271.56
2017-11-07T19:33:02.796Z,102258.00
2017-11-07T19:35:29.094Z,102258.87
2017-11-07T19:37:55.939Z,102258.45
2017-11-07T19:40:22.200Z,102253.63
2017-11-07T19:42:48.449Z,102248.83
2017-11-07T19:45:14.757Z,102253.64
2017-11-07T19:47:41.239Z,102257.13
2017-11-07T19:50:07.501Z,102252.33
2017-11-07T19:52:34.208Z,102257.56
2017-11-07T19:55:00.634Z,102250.58
2017-11-07T19:57:26.891Z,102254.94
2017-11-07T19:59:53.208Z,102253.63
2017-11-07T20:02:19.490Z,102252.34
2017-11-07T20:04:45.752Z,102251.88
2017-11-07T20:07:12.062Z,102251.00
2017-11-07T20:09:38.330Z,102250.14
2017-11-07T20:12:04.605Z,102251.47
2017-11-07T20:14:31.001Z,102251.89
2017-11-07T20:16:57.256Z,102244.89
2017-11-07T20:19:23.554Z,102244.89
2017-11-07T20:21:51.656Z,102239.22
2017-11-07T20:24:17.937Z,102238.34
2017-11-07T20:26:44.539Z,102235.73
2017-11-07T20:29:11.031Z,102245.34
2017-11-07T20:31:37.269Z,102240.54
2017-11-07T20:34:03.531Z,102249.72
2017-11-07T20:36:30.114Z,102240.53
2017-11-07T20:38:56.395Z,102244.05
2017-11-07T20:41:22.698Z,102229.18
2017-11-07T20:43:49.348Z,102229.61
2017-11-07T20:46:15.824Z,102231.78
2017-11-07T20:48:42.168Z,102227.84
2017-11-07T20:51:09.019Z,102225.68
2017-11-07T20:53:35.262Z,102228.74
2017-11-07T20:56:01.730Z,102224.80
2017-11-07T20:58:28.534Z,102225.23
2017-11-07T21:00:54.805Z,102229.18
2017-11-07T21:03:22.239Z,102225.67
2017-11-07T21:05:48.550Z,102231.77
2017-11-07T21:08:14.809Z,102223.50
2017-11-07T21:10:41.129Z,102223.91
2017-11-07T21:13:07.517Z,102212.59
2017-11-07T21:15:33.789Z,102220.45
2017-11-07T21:18:00.065Z,102219.13
2017-11-07T21:20:26.487Z,102220.89
2017-11-07T21:22:52.739Z,102221.73
2017-11-07T21:25:19.001Z,102210.82
2017-11-07T21:27:45.628Z,102204.70
2017-11-07T21:30:11.879Z,102203.83
2017-11-07T21:32:38.399Z,102206.45
2017-11-07T21:35:05.088Z,102199.87
2017-11-07T21:37:31.398Z,102196.83
2017-11-07T21:39:57.639Z,102201.63
2017-11-07T21:44:50.106Z,102185.92
2017-11-07T21:47:16.386Z,102184.62
2017-11-07T21:49:42.707Z,102185.05
2017-11-07T21:52:09.008Z,102184.18
2017-11-07T21:54:35.264Z,102178.06
2017-11-07T21:57:01.753Z,102173.29
2017-11-07T21:59:28.072Z,102170.66
2017-11-07T22:01:54.311Z,102171.97
2017-11-07T22:04:20.734Z,102175.03
2017-11-07T22:06:47.009Z,102172.82
2017-11-07T22:09:13.283Z,102162.79
2017-11-07T22:11:40.032Z,102168.48
2017-11-07T22:14:06.314Z,102161.47
2017-11-07T22:16:38.525Z,102163.23
2017-11-07T22:19:04.880Z,102158.42
2017-11-07T22:21:31.157Z,102154.92
2017-11-07T22:23:57.427Z,102152.28
2017-11-07T22:26:23.823Z,102151.84
2017-11-07T22:28:50.129Z,102145.73
2017-11-07T22:31:16.464Z,102154.04
2017-11-07T22:33:43.106Z,102143.56
2017-11-07T22:36:09.390Z,102142.69
2017-11-07T22:38:35.680Z,102140.92
2017-11-07T22:41:02.076Z,102145.75
2017-11-07T22:43:28.357Z,102144.42
2017-11-07T22:45:54.667Z,102144.01
2017-11-07T22:48:21.402Z,102140.49
2017-11-07T22:50:47.609Z,102146.17
2017-11-07T22:53:14.058Z,102149.67
2017-11-07T22:55:40.387Z,102153.60
2017-11-07T22:58:07.021Z,102150.55
2017-11-07T23:00:33.227Z,102155.36
2017-11-07T23:02:59.503Z,102148.80
2017-11-07T23:05:26.714Z,102136.55
2017-11-07T23:07:52.932Z,102138.77
2017-11-07T23:10:19.361Z,102132.20
2017-11-07T23:12:45.559Z,102134.81
2017-11-07T23:15:11.766Z,102135.70
2017-11-07T23:17:38.273Z,102130.88
2017-11-07T23:20:04.472Z,102132.20
2017-11-07T23:22:30.671Z,102125.20
2017-11-07T23:24:57.162Z,102129.56
2017-11-07T23:27:23.618Z,102130.47
2017-11-07T23:29:50.049Z,102129.13
2017-11-07T23:32:16.747Z,102127.80
2017-11-07T23:34:42.960Z,102130.00
2017-11-07T23:37:09.164Z,102126.51
2017-11-07T23:39:35.416Z,102127.80
2017-11-07T23:42:01.610Z,102129.57
2017-11-07T23:44:27.794Z,102124.31
2017-11-07T23:46:54.410Z,102128.67
2017-11-07T23:49:20.604Z,102129.55
2017-11-07T23:51:46.797Z,102126.05
2017-11-07T23:54:13.044Z,102126.49
2017-11-07T23:56:39.224Z,102124.31
2017-11-07T23:59:05.751Z,102119.95
